createdAt,value
2024-05-09T00:00:47.965Z,101749.80
2024-05-09T00:03:36.263Z,101742.14
2024-05-09T00:06:05.573Z,101743.98
2024-05-09T00:08:33.876Z,101735.97
2024-05-09T00:11:02.188Z,101736.90
2024-05-09T00:13:30.704Z,101734.55
2024-05-09T00:15:59.715Z,101734.52
2024-05-09T00:18:28.169Z,101731.48
2024-05-09T00:20:56.536Z,101731.48
2024-05-09T00:23:25.161Z,101729.05
2024-05-09T00:25:53.474Z,101728.23
2024-05-09T00:28:23.239Z,101731.92
2024-05-09T00:30:51.978Z,101728.23
2024-05-09T00:33:20.349Z,101727.73
2024-05-09T00:35:48.939Z,101726.38
2024-05-09T00:38:17.380Z,101728.25
2024-05-09T00:40:45.760Z,101731.39
2024-05-09T00:43:15.411Z,101730.69
2024-05-09T00:45:44.295Z,101726.59
2024-05-09T00:48:17.265Z,101727.34
2024-05-09T00:50:49.274Z,101737.39
2024-05-09T00:53:18.770Z,101734.27
2024-05-09T00:55:47.687Z,101733.15
2024-05-09T00:58:18.446Z,101732.25
2024-05-09T01:00:47.059Z,101723.09
2024-05-09T01:03:15.828Z,101720.98
2024-05-09T01:05:44.747Z,101721.03
2024-05-09T01:08:13.424Z,101722.30
2024-05-09T01:10:44.845Z,101722.25
2024-05-09T01:13:14.310Z,101724.85
2024-05-09T01:15:43.779Z,101720.29
2024-05-09T01:18:13.778Z,101720.48
2024-05-09T01:20:44.654Z,101721.57
2024-05-09T01:23:15.834Z,101721.91
2024-05-09T01:25:46.546Z,101721.94
2024-05-09T01:28:16.481Z,101718.20
2024-05-09T01:30:45.162Z,101721.20
2024-05-09T01:33:14.046Z,101722.92
2024-05-09T01:35:43.138Z,101722.42
2024-05-09T01:38:13.225Z,101722.30
2024-05-09T01:40:42.852Z,101724.12
2024-05-09T01:43:12.051Z,101723.02
2024-05-09T01:45:41.195Z,101719.98
2024-05-09T01:48:10.977Z,101720.94
2024-05-09T01:50:42.444Z,101719.86
2024-05-09T01:53:13.960Z,101718.55
2024-05-09T01:55:43.856Z,101712.71
2024-05-09T01:58:13.608Z,101714.60
2024-05-09T02:00:43.269Z,101714.71
2024-05-09T02:03:16.235Z,101718.42
2024-05-09T02:05:49.344Z,101715.94
2024-05-09T02:08:19.915Z,101719.55
2024-05-09T02:10:49.868Z,101722.95
2024-05-09T02:13:18.879Z,101720.86
2024-05-09T02:15:52.084Z,101717.20
2024-05-09T02:18:23.183Z,101714.35
2024-05-09T02:20:51.564Z,101713.21
2024-05-09T02:23:20.153Z,101714.28
2024-05-09T02:25:48.515Z,101719.69
2024-05-09T02:28:16.740Z,101719.58
2024-05-09T02:30:44.786Z,101722.20
2024-05-09T02:33:14.490Z,101723.08
2024-05-09T02:35:44.241Z,101728.23
2024-05-09T02:38:13.648Z,101730.72
2024-05-09T02:40:42.156Z,101727.02
2024-05-09T02:43:12.935Z,101729.84
2024-05-09T02:45:42.074Z,101727.54
2024-05-09T02:48:12.117Z,101727.45
2024-05-09T02:50:44.640Z,101725.67
2024-05-09T02:53:14.432Z,101722.59
2024-05-09T02:55:43.267Z,101723.06
2024-05-09T02:58:12.197Z,101727.02
2024-05-09T03:00:42.485Z,101732.42
2024-05-09T03:03:14.138Z,101733.03
2024-05-09T03:05:45.669Z,101734.04
2024-05-09T03:08:14.137Z,101738.89
2024-05-09T03:10:42.919Z,101740.74
2024-05-09T03:13:14.440Z,101740.88
2024-05-09T03:15:44.834Z,101739.67
2024-05-09T03:18:14.070Z,101740.05
2024-05-09T03:20:44.586Z,101742.72
2024-05-09T03:23:13.302Z,101742.36
2024-05-09T03:25:41.731Z,101742.11
2024-05-09T03:28:11.328Z,101743.73
2024-05-09T03:30:42.468Z,101746.68
2024-05-09T03:33:15.516Z,101752.02
2024-05-09T03:35:44.366Z,101753.06
2024-05-09T03:38:12.860Z,101754.15
2024-05-09T03:40:46.188Z,101755.13
2024-05-09T03:43:14.675Z,101751.11
2024-05-09T03:45:43.580Z,101749.98
2024-05-09T03:48:11.974Z,101751.31
2024-05-09T03:50:41.065Z,101752.39
2024-05-09T03:53:14.253Z,101748.46
2024-05-09T03:55:42.712Z,101750.09
2024-05-09T03:58:12.772Z,101757.98
2024-05-09T04:00:42.721Z,101759.21
2024-05-09T04:03:12.703Z,101763.73
2024-05-09T04:05:44.348Z,101766.39
2024-05-09T04:08:15.408Z,101765.05
2024-05-09T04:10:44.243Z,101769.42
2024-05-09T04:13:12.733Z,101770.36
2024-05-09T04:15:41.767Z,101773.93
2024-05-09T04:18:10.270Z,101771.48
2024-05-09T04:20:40.873Z,101768.14
2024-05-09T04:23:14.259Z,101771.86
2024-05-09T04:25:45.314Z,101772.91
2024-05-09T04:28:14.516Z,101775.14
2024-05-09T04:30:43.433Z,101769.60
2024-05-09T04:33:15.235Z,101775.09
2024-05-09T04:35:44.278Z,101779.65
2024-05-09T04:38:14.445Z,101779.05
2024-05-09T04:40:43.339Z,101776.89
2024-05-09T04:43:16.913Z,101778.59
2024-05-09T04:45:45.592Z,101777.52
2024-05-09T04:48:14.116Z,101780.36
2024-05-09T04:50:42.662Z,101787.25
2024-05-09T04:53:16.022Z,101788.58
2024-05-09T04:55:44.726Z,101785.46
2024-05-09T04:58:13.140Z,101789.14
2024-05-09T05:00:41.991Z,101787.56
2024-05-09T05:03:14.497Z,101789.25
2024-05-09T05:05:46.323Z,101784.02
2024-05-09T05:08:17.169Z,101785.38
2024-05-09T05:10:47.507Z,101788.27
2024-05-09T05:13:18.131Z,101790.71
2024-05-09T05:15:48.884Z,101791.41
2024-05-09T05:18:17.627Z,101797.70
2024-05-09T05:20:47.252Z,101796.08
2024-05-09T05:23:18.348Z,101798.89
2024-05-09T05:25:47.999Z,101797.73
2024-05-09T05:28:17.387Z,101795.02
2024-05-09T05:30:46.244Z,101795.70
2024-05-09T05:33:16.162Z,101790.92
2024-05-09T05:35:44.625Z,101795.02
2024-05-09T05:38:12.987Z,101799.09
2024-05-09T05:40:41.481Z,101794.25
2024-05-09T05:43:17.461Z,101797.33
2024-05-09T05:45:46.561Z,101794.38
2024-05-09T05:48:16.896Z,101790.69
2024-05-09T05:50:46.627Z,101792.62
2024-05-09T05:53:15.391Z,101790.90
2024-05-09T05:55:43.850Z,101796.52
2024-05-09T05:58:12.616Z,101799.24
2024-05-09T06:00:42.078Z,101803.73
2024-05-09T06:03:14.416Z,101805.14
2024-05-09T06:05:44.326Z,101799.81
2024-05-09T06:08:12.810Z,101797.88
2024-05-09T06:10:42.016Z,101800.53
2024-05-09T06:13:14.468Z,101800.39
2024-05-09T06:15:43.655Z,101792.72
2024-05-09T06:18:14.162Z,101795.36
2024-05-09T06:20:44.032Z,101792.16
2024-05-09T06:23:14.290Z,101791.74
2024-05-09T06:25:43.746Z,101797.77
2024-05-09T06:28:11.992Z,101797.34
2024-05-09T06:30:42.484Z,101799.57
2024-05-09T06:33:14.375Z,101795.95
2024-05-09T06:35:46.326Z,101796.61
2024-05-09T06:38:14.899Z,101797.88
2024-05-09T06:40:44.332Z,101798.98
2024-05-09T06:43:15.005Z,101801.80
2024-05-09T06:45:46.122Z,101802.14
2024-05-09T06:48:14.946Z,101800.54
2024-05-09T06:50:43.284Z,101803.35
2024-05-09T06:53:14.321Z,101799.26
2024-05-09T06:55:43.077Z,101800.07
2024-05-09T06:58:11.426Z,101803.17
2024-05-09T07:00:41.499Z,101799.45
2024-05-09T07:03:13.165Z,101801.55
2024-05-09T07:05:43.732Z,101800.83
2024-05-09T07:08:12.321Z,101806.45
2024-05-09T07:10:41.242Z,101806.93
2024-05-09T07:13:13.720Z,101807.11
2024-05-09T07:15:43.718Z,101811.02
2024-05-09T07:18:15.576Z,101808.45
2024-05-09T07:20:44.345Z,101809.29
2024-05-09T07:23:13.112Z,101808.77
2024-05-09T07:25:42.186Z,101813.77
2024-05-09T07:28:18.573Z,101813.17
2024-05-09T07:30:47.173Z,101806.80
2024-05-09T07:33:17.469Z,101803.82
2024-05-09T07:35:46.008Z,101809.05
2024-05-09T07:38:14.345Z,101815.27
2024-05-09T07:40:43.212Z,101816.08
2024-05-09T07:43:12.770Z,101808.54
2024-05-09T07:45:50.479Z,101809.98
2024-05-09T07:52:42.898Z,101806.31
2024-05-09T07:53:49.784Z,101803.03
2024-05-09T07:56:22.779Z,101806.23
2024-05-09T07:58:56.467Z,101801.98
2024-05-09T08:01:26.661Z,101807.11
2024-05-09T08:03:56.369Z,101806.53
2024-05-09T08:06:25.796Z,101803.45
2024-05-09T08:08:54.547Z,101804.48
2024-05-09T08:11:23.923Z,101802.52
2024-05-09T08:13:52.410Z,101804.27
2024-05-09T08:16:20.662Z,101806.96
2024-05-09T08:18:50.217Z,101801.30
2024-05-09T08:21:19.447Z,101801.74
2024-05-09T08:23:47.722Z,101803.11
2024-05-09T08:26:15.964Z,101801.54
2024-05-09T08:28:44.146Z,101803.24
2024-05-09T08:31:12.685Z,101801.86
2024-05-09T08:33:47.014Z,101800.01
2024-05-09T08:36:15.563Z,101796.92
2024-05-09T08:38:43.724Z,101797.89
2024-05-09T08:41:14.613Z,101798.13
2024-05-09T08:43:44.612Z,101795.38
2024-05-09T08:46:14.248Z,101796.77
2024-05-09T08:48:44.078Z,101792.52
2024-05-09T08:51:14.020Z,101791.46
2024-05-09T08:53:42.209Z,101796.41
2024-05-09T08:56:12.029Z,101798.39
2024-05-09T08:58:42.589Z,101796.90
2024-05-09T09:01:12.395Z,101798.36
2024-05-09T09:03:42.397Z,101793.19
2024-05-09T09:06:14.493Z,101796.35
2024-05-09T09:08:43.178Z,101791.76
2024-05-09T09:11:11.991Z,101792.43
2024-05-09T09:13:40.394Z,101787.00
2024-05-09T09:16:08.693Z,101784.14
2024-05-09T09:18:37.909Z,101782.88
2024-05-09T09:21:10.548Z,101784.66
2024-05-09T09:23:41.969Z,101783.96
2024-05-09T09:26:15.931Z,101786.14
2024-05-09T09:28:46.887Z,101785.69
2024-05-09T09:31:19.498Z,101783.27
2024-05-09T09:33:48.383Z,101780.25
2024-05-09T09:36:18.624Z,101778.61
2024-05-09T09:38:48.301Z,101776.45
2024-05-09T09:41:17.776Z,101772.30
2024-05-09T09:43:46.271Z,101769.83
2024-05-09T09:46:15.033Z,101770.73
2024-05-09T09:48:44.726Z,101768.08
2024-05-09T09:51:15.041Z,101765.09
2024-05-09T09:53:44.330Z,101766.32
2024-05-09T09:56:15.207Z,101769.94
2024-05-09T09:58:45.457Z,101769.55
2024-05-09T10:01:14.364Z,101765.94
2024-05-09T10:03:45.472Z,101764.73
2024-05-09T10:06:15.417Z,101757.95
2024-05-09T10:08:46.979Z,101756.51
2024-05-09T10:11:22.403Z,101754.85
2024-05-09T10:13:51.769Z,101750.38
2024-05-09T10:16:23.301Z,101747.45
2024-05-09T10:18:52.821Z,101747.30
2024-05-09T10:21:21.790Z,101743.55
2024-05-09T10:24:03.895Z,101739.36
2024-05-09T10:26:38.333Z,101731.33
2024-05-09T10:29:14.464Z,101729.38
2024-05-09T10:31:47.917Z,101729.73
2024-05-09T10:34:21.189Z,101722.17
2024-05-09T10:36:55.598Z,101722.96
2024-05-09T10:39:25.865Z,101725.51
2024-05-09T10:41:54.025Z,101725.64
2024-05-09T10:44:22.170Z,101726.86
2024-05-09T10:46:50.980Z,101726.38
2024-05-09T10:49:19.990Z,101726.79
2024-05-09T10:51:48.991Z,101725.07
2024-05-09T10:54:17.403Z,101722.89
2024-05-09T10:56:45.658Z,101724.45
2024-05-09T10:59:13.866Z,101717.65
2024-05-09T11:01:42.190Z,101717.03
2024-05-09T11:04:10.694Z,101716.76
2024-05-09T11:06:40.227Z,101711.96
2024-05-09T11:09:08.789Z,101713.02
2024-05-09T11:11:37.076Z,101709.88
2024-05-09T11:14:14.649Z,101711.90
2024-05-09T11:16:43.135Z,101712.83
2024-05-09T11:19:13.737Z,101711.34
2024-05-09T11:21:42.318Z,101708.81
2024-05-09T11:24:11.618Z,101705.30
2024-05-09T11:26:40.160Z,101701.83
2024-05-09T11:29:08.447Z,101700.71
2024-05-09T11:31:46.908Z,101699.83
2024-05-09T11:34:15.705Z,101696.59
2024-05-09T11:36:44.271Z,101696.39
2024-05-09T11:39:14.573Z,101694.13
2024-05-09T11:41:42.932Z,101693.08
2024-05-09T11:44:11.638Z,101691.92
2024-05-09T11:46:39.916Z,101687.78
2024-05-09T11:49:09.899Z,101690.21
2024-05-09T11:51:38.293Z,101684.61
2024-05-09T11:54:06.711Z,101686.79
2024-05-09T11:56:35.096Z,101687.99
2024-05-09T11:59:03.808Z,101683.69
2024-05-09T12:01:32.394Z,101683.66
2024-05-09T12:04:01.373Z,101680.33
2024-05-09T12:06:30.106Z,101680.92
2024-05-09T12:08:58.501Z,101677.80
2024-05-09T12:11:27.050Z,101678.11
2024-05-09T12:13:55.320Z,101672.36
2024-05-09T12:16:24.030Z,101668.25
2024-05-09T12:18:52.785Z,101667.47
2024-05-09T12:21:21.497Z,101664.61
2024-05-09T12:23:49.605Z,101662.48
2024-05-09T12:26:18.005Z,101652.81
2024-05-09T12:28:46.251Z,101646.41
2024-05-09T12:31:14.644Z,101640.66
2024-05-09T12:33:43.120Z,101643.75
2024-05-09T12:36:11.401Z,101642.70
2024-05-09T12:38:41.010Z,101638.20
2024-05-09T12:41:10.542Z,101636.13
2024-05-09T12:43:38.853Z,101629.82
2024-05-09T12:46:07.299Z,101620.01
2024-05-09T12:48:35.758Z,101621.34
2024-05-09T12:51:05.848Z,101619.70
2024-05-09T12:53:34.081Z,101622.33
2024-05-09T12:56:04.404Z,101627.42
2024-05-09T12:58:33.818Z,101622.36
2024-05-09T13:01:02.163Z,101622.22
2024-05-09T13:03:30.855Z,101627.23
2024-05-09T13:05:59.270Z,101622.19
2024-05-09T13:08:27.560Z,101618.73
2024-05-09T13:10:56.082Z,101617.39
2024-05-09T13:13:24.452Z,101611.99
2024-05-09T13:15:52.833Z,101610.30
2024-05-09T13:18:21.141Z,101608.93
2024-05-09T13:20:49.373Z,101606.23
2024-05-09T13:23:18.320Z,101602.52
2024-05-09T13:25:46.763Z,101599.06
2024-05-09T13:28:15.067Z,101598.59
2024-05-09T13:30:43.370Z,101595.09
2024-05-09T13:33:14.435Z,101587.30
2024-05-09T13:35:47.281Z,101589.90
2024-05-09T13:38:20.374Z,101581.55
2024-05-09T13:40:50.375Z,101577.41
2024-05-09T13:43:20.067Z,101578.91
2024-05-09T13:45:48.705Z,101576.17
2024-05-09T13:48:17.124Z,101578.36
2024-05-09T13:50:45.701Z,101575.40
2024-05-09T13:53:14.179Z,101572.82
2024-05-09T13:55:42.428Z,101569.69
2024-05-09T13:58:10.985Z,101566.77
2024-05-09T14:00:46.246Z,101564.05
2024-05-09T14:03:20.301Z,101557.59
2024-05-09T14:05:51.341Z,101557.48
2024-05-09T14:08:21.838Z,101552.97
2024-05-09T14:10:51.004Z,101547.63
2024-05-09T14:13:20.201Z,101547.20
2024-05-09T14:15:49.220Z,101543.58
2024-05-09T14:18:17.878Z,101539.83
2024-05-09T14:20:46.130Z,101539.59
2024-05-09T14:23:17.281Z,101534.84
2024-05-09T14:25:48.077Z,101534.19
2024-05-09T14:28:19.118Z,101535.29
2024-05-09T14:30:47.691Z,101534.44
2024-05-09T14:33:20.664Z,101534.95
2024-05-09T14:35:49.600Z,101530.62
2024-05-09T14:38:17.963Z,101530.30
2024-05-09T14:40:46.227Z,101527.96
2024-05-09T14:43:15.869Z,101529.98
2024-05-09T14:45:45.123Z,101528.15
2024-05-09T14:48:15.780Z,101527.75
2024-05-09T14:50:44.336Z,101526.33
2024-05-09T14:53:13.827Z,101520.29
2024-05-09T14:55:43.702Z,101519.90
2024-05-09T14:58:13.038Z,101517.48
2024-05-09T15:00:46.662Z,101519.27
2024-05-09T15:03:22.500Z,101516.30
2024-05-09T15:05:52.398Z,101516.87
2024-05-09T15:08:21.340Z,101516.16
2024-05-09T15:10:51.241Z,101513.89
2024-05-09T15:13:21.090Z,101518.98
2024-05-09T15:15:50.092Z,101517.26
2024-05-09T15:18:18.857Z,101514.32
2024-05-09T15:20:47.976Z,101508.55
2024-05-09T15:23:16.895Z,101508.23
2024-05-09T15:25:45.362Z,101506.14
2024-05-09T15:28:13.910Z,101505.19
2024-05-09T15:30:46.150Z,101506.98
2024-05-09T15:33:15.422Z,101507.23
2024-05-09T15:35:46.088Z,101507.80
2024-05-09T15:38:15.198Z,101505.71
2024-05-09T15:40:43.852Z,101506.88
2024-05-09T15:43:12.144Z,101506.88
2024-05-09T15:45:41.559Z,101508.39
2024-05-09T15:48:11.293Z,101505.23
2024-05-09T15:50:42.077Z,101504.05
2024-05-09T15:53:13.219Z,101499.23
2024-05-09T15:55:43.174Z,101497.55
2024-05-09T15:58:12.282Z,101501.16
2024-05-09T16:00:44.411Z,101505.41
2024-05-09T16:03:15.005Z,101502.47
2024-05-09T16:05:47.941Z,101506.45
2024-05-09T16:08:16.887Z,101506.46
2024-05-09T16:10:47.239Z,101508.09
2024-05-09T16:13:16.864Z,101508.83
2024-05-09T16:15:46.532Z,101504.44
2024-05-09T16:18:15.698Z,101504.89
2024-05-09T16:20:45.634Z,101506.02
2024-05-09T16:23:16.272Z,101503.83
2024-05-09T16:25:47.439Z,101508.80
2024-05-09T16:28:16.493Z,101510.25
2024-05-09T16:30:44.885Z,101509.66
2024-05-09T16:33:13.515Z,101512.96
2024-05-09T16:35:42.181Z,101515.04
2024-05-09T16:38:10.623Z,101514.58
2024-05-09T16:40:41.121Z,101515.38
2024-05-09T16:43:12.733Z,101518.01
2024-05-09T16:45:46.062Z,101520.09
2024-05-09T16:48:14.833Z,101519.84
2024-05-09T16:50:43.343Z,101523.48
2024-05-09T16:53:13.547Z,101523.46
2024-05-09T16:55:41.840Z,101529.66
2024-05-09T16:58:12.407Z,101529.75
2024-05-09T17:00:43.421Z,101531.47
2024-05-09T17:03:15.294Z,101537.73
2024-05-09T17:05:48.518Z,101536.91
2024-05-09T17:08:20.106Z,101539.77
2024-05-09T17:10:49.529Z,101543.97
2024-05-09T17:13:19.204Z,101545.45
2024-05-09T17:15:50.076Z,101547.39
2024-05-09T17:18:18.725Z,101546.98
2024-05-09T17:20:49.058Z,101548.08
2024-05-09T17:23:17.636Z,101549.31
2024-05-09T17:25:45.941Z,101553.11
2024-05-09T17:28:14.387Z,101556.50
2024-05-09T17:30:43.180Z,101554.89
2024-05-09T17:33:12.933Z,101555.46
2024-05-09T17:35:42.011Z,101557.73
2024-05-09T17:38:10.368Z,101562.98
2024-05-09T17:40:39.422Z,101563.02
2024-05-09T17:43:10.689Z,101562.33
2024-05-09T17:45:40.984Z,101568.34
2024-05-09T17:48:11.891Z,101567.89
2024-05-09T17:50:41.991Z,101572.52
2024-05-09T17:53:11.317Z,101570.75
2024-05-09T17:55:40.626Z,101578.83
2024-05-09T17:58:10.253Z,101580.09
2024-05-09T18:00:41.682Z,101584.47
2024-05-09T18:03:12.474Z,101586.75
2024-05-09T18:05:44.332Z,101589.25
2024-05-09T18:08:13.646Z,101588.02
2024-05-09T18:10:42.752Z,101588.42
2024-05-09T18:13:12.902Z,101587.13
2024-05-09T18:15:41.807Z,101595.13
2024-05-09T18:18:11.310Z,101595.54
2024-05-09T18:20:44.192Z,101597.66
2024-05-09T18:23:16.670Z,101604.93
2024-05-09T18:25:47.856Z,101605.24
2024-05-09T18:28:17.397Z,101608.71
2024-05-09T18:30:46.522Z,101613.73
2024-05-09T18:33:15.792Z,101619.36
2024-05-09T18:35:45.357Z,101622.40
2024-05-09T18:38:13.990Z,101627.59
2024-05-09T18:40:44.760Z,101630.88
2024-05-09T18:43:16.101Z,101632.15
2024-05-09T18:45:45.349Z,101629.83
2024-05-09T18:48:13.935Z,101635.98
2024-05-09T18:50:42.694Z,101639.39
2024-05-09T18:53:12.560Z,101640.45
2024-05-09T18:55:42.423Z,101642.83
2024-05-09T18:58:11.564Z,101643.63
2024-05-09T19:00:42.658Z,101651.88
2024-05-09T19:03:14.762Z,101651.39
2024-05-09T19:05:45.878Z,101656.94
2024-05-09T19:08:15.733Z,101658.00
2024-05-09T19:10:47.235Z,101658.20
2024-05-09T19:13:16.517Z,101663.63
2024-05-09T19:15:45.045Z,101671.05
2024-05-09T19:18:14.462Z,101677.65
2024-05-09T19:20:44.162Z,101682.11
2024-05-09T19:23:12.961Z,101675.98
2024-05-09T19:25:41.326Z,101679.05
2024-05-09T19:28:10.055Z,101685.55
2024-05-09T19:30:41.661Z,101684.27
2024-05-09T19:33:14.736Z,101687.06
2024-05-09T19:35:43.826Z,101685.88
2024-05-09T19:38:12.872Z,101686.25
2024-05-09T19:40:41.698Z,101687.71
2024-05-09T19:43:10.902Z,101689.58
2024-05-09T19:45:39.520Z,101691.68
2024-05-09T19:48:08.880Z,101694.73
2024-05-09T19:50:42.651Z,101699.30
2024-05-09T19:53:14.809Z,101699.37
2024-05-09T19:55:43.657Z,101702.72
2024-05-09T19:58:12.949Z,101700.48
2024-05-09T20:00:43.580Z,101706.16
2024-05-09T20:03:15.230Z,101704.83
2024-05-09T20:05:46.841Z,101705.72
2024-05-09T20:08:16.397Z,101705.27
2024-05-09T20:10:45.170Z,101710.10
2024-05-09T20:13:14.711Z,101707.27
2024-05-09T20:15:42.914Z,101708.32
2024-05-09T20:18:11.537Z,101712.46
2024-05-09T20:20:42.860Z,101714.13
2024-05-09T20:23:13.668Z,101714.61
2024-05-09T20:25:42.536Z,101714.09
2024-05-09T20:28:11.085Z,101719.27
2024-05-09T20:30:39.829Z,101717.23
2024-05-09T20:33:09.469Z,101717.73
2024-05-09T20:35:38.564Z,101717.95
2024-05-09T20:38:07.056Z,101718.96
2024-05-09T20:40:38.068Z,101721.68
2024-05-09T20:43:09.915Z,101722.19
2024-05-09T20:45:40.032Z,101723.02
2024-05-09T20:48:09.704Z,101720.63
2024-05-09T20:50:41.281Z,101722.75
2024-05-09T20:53:13.848Z,101720.16
2024-05-09T20:55:44.625Z,101721.32
2024-05-09T20:58:14.144Z,101721.45
2024-05-09T21:00:45.563Z,101721.23
2024-05-09T21:03:16.937Z,101722.58
2024-05-09T21:05:47.804Z,101730.04
2024-05-09T21:08:16.612Z,101722.59
2024-05-09T21:10:45.002Z,101723.82
2024-05-09T21:13:13.359Z,101726.30
2024-05-09T21:15:41.902Z,101724.98
2024-05-09T21:18:10.281Z,101725.50
2024-05-09T21:20:38.746Z,101728.52
2024-05-09T21:23:06.915Z,101727.20
2024-05-09T21:25:35.091Z,101729.84
2024-05-09T21:28:03.439Z,101730.25
2024-05-09T21:30:40.362Z,101734.03
2024-05-09T21:33:13.955Z,101733.66
2024-05-09T21:35:44.642Z,101735.56
2024-05-09T21:38:14.535Z,101735.81
2024-05-09T21:40:44.221Z,101739.44
2024-05-09T21:43:12.723Z,101746.20
2024-05-09T21:45:41.816Z,101745.33
2024-05-09T21:48:12.812Z,101746.38
2024-05-09T21:50:42.525Z,101747.27
2024-05-09T21:53:12.510Z,101748.40
2024-05-09T21:55:44.802Z,101749.74
2024-05-09T21:58:16.272Z,101747.77
2024-05-09T22:00:46.347Z,101752.06
2024-05-09T22:03:15.560Z,101749.67
2024-05-09T22:05:45.215Z,101749.90
2024-05-09T22:08:13.868Z,101755.86
2024-05-09T22:10:42.824Z,101752.65
2024-05-09T22:13:11.263Z,101753.09
2024-05-09T22:15:40.531Z,101752.86
2024-05-09T22:18:11.001Z,101756.65
2024-05-09T22:20:44.853Z,101751.52
2024-05-09T22:23:15.523Z,101757.29
2024-05-09T22:25:44.300Z,101754.75
2024-05-09T22:28:15.627Z,101756.01
2024-05-09T22:30:45.998Z,101757.88
2024-05-09T22:33:14.942Z,101758.65
2024-05-09T22:35:43.500Z,101764.20
2024-05-09T22:38:11.769Z,101762.20
2024-05-09T22:40:47.341Z,101757.40
2024-05-09T22:43:23.702Z,101761.95
2024-05-09T22:45:56.760Z,101756.91
2024-05-09T22:48:26.180Z,101760.02
2024-05-09T22:50:55.220Z,101755.40
2024-05-09T22:53:27.183Z,101753.65
2024-05-09T22:55:55.440Z,101756.75
2024-05-09T22:58:24.189Z,101762.00
2024-05-09T23:00:52.624Z,101766.73
2024-05-09T23:03:22.631Z,101765.72
2024-05-09T23:05:52.965Z,101765.88
2024-05-09T23:08:21.082Z,101765.77
2024-05-09T23:10:49.387Z,101763.59
2024-05-09T23:13:17.818Z,101765.15
2024-05-09T23:15:46.046Z,101763.52
2024-05-09T23:18:14.424Z,101764.88
2024-05-09T23:20:42.767Z,101764.88
2024-05-09T23:23:12.000Z,101763.16
2024-05-09T23:25:41.574Z,101764.56
2024-05-09T23:28:10.914Z,101763.30
2024-05-09T23:30:41.074Z,101765.23
2024-05-09T23:33:14.804Z,101763.50
2024-05-09T23:35:44.406Z,101763.92
2024-05-09T23:38:13.831Z,101764.55
2024-05-09T23:40:43.230Z,101762.95
2024-05-09T23:43:14.302Z,101766.29
2024-05-09T23:45:43.438Z,101770.55
2024-05-09T23:48:12.068Z,101771.25
2024-05-09T23:50:41.346Z,101774.15
2024-05-09T23:53:10.961Z,101776.16
2024-05-09T23:55:40.018Z,101773.33
2024-05-09T23:58:10.085Z,101775.11
